Time;durP1;ratioP1;P1;durP2;ratioP2;P2;SDS_P1;SDS_P2;PMS_P1;PMS_P2;Temp;Humidity;BMP_temperature;BMP_pressure;BME280_temperature;BME280_humidity;BME280_pressure;Samples;Min_cycle;Max_cycle;Signal;HPM_P1;HPM_P2
2022/08/05 10:32:31;;;;;;;6.72;3.00;;;;;;;21.60;62.34;100399.47;4474081;28;13596375;-78
2022/08/05 10:51:12;;;;;;;5.88;2.72;;;;;;;22.00;61.65;100421.25;4969576;28;20058;-77
2022/08/05 10:54:27;;;;;;;5.65;2.90;;;;;;;22.08;62.22;100434.28;4970056;28;20054;-78
2022/08/05 11:01:06;;;;;;;6.40;4.10;;;;;;;21.97;61.92;100441.91;4976538;28;20046;-78
2022/08/05 11:04:13;;;;;;;8.23;4.90;;;;;;;21.94;63.21;100447.53;4969316;28;20054;-79
2022/08/05 11:10:33;;;;;;;7.03;5.15;;;;;;;22.04;63.23;100458.16;4897218;29;20209;-79
2022/08/05 11:17:04;;;;;;;5.18;3.75;;;;;;;22.25;62.35;100469.69;4896437;29;20468;-79
2022/08/05 11:23:32;;;;;;;6.93;4.20;;;;;;;22.38;61.40;100475.84;4957570;28;20051;-77
2022/08/05 11:27:01;;;;;;;5.35;3.53;;;;;;;22.48;61.20;100482.81;4957760;29;20136;-77
2022/08/05 11:29:56;;;;;;;;;;;;;;;22.40;59.93;100489.66;4957047;29;20062;-78
2022/08/05 11:32:54;;;;;;;5.88;3.92;;;;;;;22.51;60.70;100510.44;4956590;29;19929;-79
2022/08/05 11:36:23;;;;;;;6.25;4.90;;;;;;;22.64;59.46;100506.06;4965664;28;20047;-79
2022/08/05 11:39:28;;;;;;;7.00;5.00;;;;;;;22.77;60.23;100505.72;4957297;28;20046;-79
2022/08/05 11:42:40;;;;;;;7.28;5.22;;;;;;;22.99;60.36;100507.44;4976866;28;20058;-78
2022/08/05 11:48:48;;;;;;;8.13;6.40;;;;;;;23.22;58.72;100512.03;4954263;29;20504;-79
2022/08/05 11:58:11;;;;;;;5.40;4.55;;;;;;;24.79;52.69;100519.09;4955463;29;20074;-78
2022/08/05 12:07:53;;;;;;;5.80;3.58;;;;;;;27.82;46.09;100501.78;4975178;28;20074;-77
2022/08/05 12:33:32;;;;;;;5.22;3.30;;;;;;;34.69;30.57;100490.53;4955456;28;19937;-77
2022/08/05 12:40:09;;;;;;;3.67;2.50;;;;;;;35.64;28.80;100505.19;4993852;28;20054;-77
2022/08/05 12:46:44;;;;;;;4.43;2.20;;;;;;;37.01;27.23;100510.66;4986126;28;20407;-77
2022/08/05 12:50:07;;;;;;;4.25;2.78;;;;;;;38.03;25.43;100513.22;4994706;28;20065;-79
2022/08/05 12:56:51;;;;;;;3.47;3.17;;;;;;;37.68;24.59;100520.63;4986920;28;20406;-78
2022/08/05 13:03:30;;;;;;;3.92;2.17;;;;;;;35.21;26.78;100524.59;4979315;28;20049;-77
2022/08/05 13:17:14;;;;;;;5.43;3.47;;;;;;;34.80;27.08;100535.53;4972683;28;20131;-77
2022/08/05 13:20:34;;;;;;;5.90;3.92;;;;;;;35.32;27.34;100542.28;4975622;28;20395;-79
2022/08/05 13:23:36;;;;;;;6.10;5.15;;;;;;;34.77;27.78;100537.28;4975949;28;20050;-77
2022/08/05 13:26:36;;;;;;;5.20;4.68;;;;;;;35.14;26.86;100526.53;4973842;28;20062;-79
2022/08/05 13:36:14;;;;;;;6.50;3.38;;;;;;;33.69;28.80;100541.78;4967751;28;20087;-77
2022/08/05 13:39:22;;;;;;;5.28;3.55;;;;;;;33.44;28.91;100548.50;4956780;29;20150;-77
2022/08/05 13:45:35;;;;;;;6.07;3.40;;;;;;;32.00;30.45;100569.22;4957862;28;20066;-78
2022/08/05 13:48:40;;;;;;;4.82;3.67;;;;;;;31.04;31.80;100570.81;4974987;28;20058;-79
2022/08/05 13:54:26;;;;;;;5.93;3.72;;;;;;;29.50;35.25;100572.47;4977134;28;20055;-78
2022/08/05 13:57:11;;;;;;;5.30;4.38;;;;;;;29.04;35.49;100589.38;4971868;28;20051;-78
2022/08/05 14:00:03;;;;;;;6.63;4.45;;;;;;;29.12;36.11;100576.50;4976265;28;20511;-77
2022/08/05 14:09:45;;;;;;;3.53;2.72;;;;;;;30.21;34.26;100564.28;4973935;28;20054;-77
2022/08/05 14:12:24;;;;;;;4.55;2.60;;;;;;;30.62;33.89;100571.50;4972430;28;20051;-78
2022/08/05 14:15:11;;;;;;;4.00;2.90;;;;;;;30.78;33.12;100566.97;4972417;28;20066;-79
2022/08/05 14:21:29;;;;;;;4.43;2.22;;;;;;;31.46;32.88;100579.50;4975017;28;20169;-80
2022/08/05 14:24:38;;;;;;;2.72;2.03;;;;;;;31.85;31.22;100572.50;4972100;28;20582;-79
2022/08/05 14:27:48;;;;;;;2.88;2.17;;;;;;;31.75;31.82;100579.41;4987755;28;20055;-77
2022/08/05 14:36:39;;;;;;;3.00;2.10;;;;;;;31.11;32.25;100579.22;4991184;28;20077;-80
2022/08/05 14:45:56;;;;;;;3.83;1.88;;;;;;;29.27;34.81;100596.31;4991928;28;20058;-77
2022/08/05 14:48:38;;;;;;;3.78;1.77;;;;;;;28.47;36.56;100605.47;4997205;28;20054;-77
2022/08/05 14:51:29;;;;;;;2.38;1.60;;;;;;;28.03;38.32;100600.88;4986033;28;20053;-76
2022/08/05 14:54:12;;;;;;;2.83;1.77;;;;;;;27.23;39.10;100606.78;4991960;28;20055;-78
2022/08/05 15:00:27;;;;;;;4.20;1.33;;;;;;;26.05;38.83;100614.31;5084326;27;20532;-67
2022/08/05 15:02:59;;;;;;;4.20;1.42;;;;;;;25.86;39.07;100620.53;5084120;28;20059;-66
2022/08/05 15:05:27;;;;;;;2.90;1.17;;;;;;;25.66;38.92;100620.22;5089206;28;20511;-67
2022/08/05 15:07:54;;;;;;;2.72;1.25;;;;;;;25.58;39.35;100624.34;5096132;28;20063;-66
2022/08/05 15:10:22;;;;;;;2.83;1.30;;;;;;;25.51;39.80;100633.72;5102694;28;20052;-67
2022/08/05 15:12:49;;;;;;;2.03;1.20;;;;;;;25.43;39.79;100626.41;5109653;28;20055;-68
2022/08/05 15:15:16;;;;;;;3.35;1.30;;;;;;;25.38;39.57;100630.50;5094533;28;20063;-67
2022/08/05 15:17:45;;;;;;;1.67;1.05;;;;;;;25.12;38.24;100629.75;5084620;28;20048;-67
2022/08/05 15:20:15;;;;;;;2.17;1.05;;;;;;;25.06;37.67;100631.38;5089158;28;20079;-67
2022/08/05 15:22:43;;;;;;;2.20;1.20;;;;;;;25.08;39.63;100633.84;5068878;28;20496;-68
2022/08/05 15:25:11;;;;;;;2.75;1.20;;;;;;;25.11;39.01;100628.13;5087118;28;20055;-68
2022/08/05 15:27:39;;;;;;;2.92;1.10;;;;;;;25.02;39.47;100624.88;5086802;28;20052;-68
2022/08/05 15:30:09;;;;;;;3.60;1.00;;;;;;;25.02;39.34;100624.06;5089682;28;20044;-68
2022/08/05 15:32:36;;;;;;;2.80;1.20;;;;;;;25.03;39.28;100632.22;5088235;28;20500;-68
2022/08/05 15:35:07;;;;;;;1.85;1.00;;;;;;;25.03;39.73;100632.22;5089339;28;20484;-68
2022/08/05 15:37:34;;;;;;;2.47;1.30;;;;;;;25.04;39.60;100641.56;5087807;28;20048;-68
2022/08/05 15:40:01;;;;;;;2.70;0.90;;;;;;;25.12;39.84;100632.59;5104254;28;20051;-67
2022/08/05 15:42:29;;;;;;;3.38;1.15;;;;;;;25.23;40.04;100629.75;5091288;28;20056;-67
2022/08/05 15:44:56;;;;;;;3.58;1.42;;;;;;;25.38;39.57;100635.41;5089129;28;20052;-67
2022/08/05 15:47:23;;;;;;;3.80;1.40;;;;;;;25.56;38.57;100630.47;5085470;28;20043;-66
2022/08/05 15:49:52;;;;;;;2.63;1.20;;;;;;;25.79;38.49;100621.38;5068354;28;20055;-67
2022/08/05 15:52:21;;;;;;;3.88;1.48;;;;;;;25.97;38.88;100617.63;5080222;28;20504;-67
2022/08/05 15:54:48;;;;;;;;;;;;;;;26.03;38.22;100624.53;5088811;28;20044;-67
2022/08/05 15:57:15;;;;;;;3.50;1.23;;;;;;;26.21;37.86;100613.81;5082613;28;19920;-67
2022/08/05 15:59:42;;;;;;;4.47;2.22;;;;;;;26.35;37.70;100621.44;5086094;28;20051;-67
2022/08/05 16:02:10;;;;;;;4.43;1.88;;;;;;;26.33;37.40;100616.19;5068027;28;20135;-67
2022/08/05 16:04:37;;;;;;;2.83;1.45;;;;;;;26.44;37.14;100613.22;5082634;28;20056;-66
2022/08/05 16:07:05;;;;;;;3.72;1.63;;;;;;;26.51;36.66;100615.22;5077789;28;20055;-67
2022/08/05 16:09:33;;;;;;;2.80;1.35;;;;;;;26.59;37.42;100630.28;5090385;28;20044;-67
2022/08/05 16:12:01;;;;;;;3.53;1.50;;;;;;;26.55;37.61;100613.13;5073097;28;20060;-67
2022/08/05 16:14:28;;;;;;;2.78;1.70;;;;;;;26.64;36.91;100619.19;5074005;28;20068;-67
2022/08/05 16:16:56;;;;;;;2.70;1.45;;;;;;;26.73;37.41;100610.97;5070431;28;20065;-67
2022/08/05 16:19:23;;;;;;;2.42;1.42;;;;;;;26.85;36.94;100623.09;5070978;28;20372;-67
2022/08/05 16:21:50;;;;;;;2.35;0.98;;;;;;;26.84;35.27;100615.78;5090557;28;20056;-67
2022/08/05 16:24:18;;;;;;;1.95;0.80;;;;;;;26.85;34.89;100618.19;5067547;28;20060;-67
2022/08/05 16:26:57;;;;;;;1.90;1.02;;;;;;;26.75;34.45;100609.72;5053783;28;20142;-67
2022/08/05 16:29:26;;;;;;;2.17;1.00;;;;;;;26.64;34.63;100621.25;5069566;28;20048;-67
2022/08/05 16:31:54;;;;;;;1.55;1.10;;;;;;;26.66;34.95;100622.44;5087170;28;20051;-67
2022/08/05 16:34:23;;;;;;;2.42;1.20;;;;;;;26.65;34.29;100625.75;5074482;28;20052;-66
2022/08/05 16:36:51;;;;;;;2.25;1.05;;;;;;;26.44;34.34;100627.50;5054790;28;20512;-67
2022/08/05 16:39:19;;;;;;;3.35;1.65;;;;;;;26.32;36.00;100634.53;5063103;28;20055;-67
2022/08/05 16:41:46;;;;;;;1.88;0.82;;;;;;;26.17;33.63;100643.63;5073360;28;20049;-66
2022/08/05 16:44:17;;;;;;;4.40;1.20;;;;;;;25.98;32.47;100648.63;5073080;28;20496;-67
2022/08/05 16:46:46;;;;;;;1.60;0.90;;;;;;;25.68;31.36;100654.84;5073131;28;20059;-67
2022/08/05 16:49:13;;;;;;;3.17;1.08;;;;;;;25.57;30.91;100651.22;5078559;28;20067;-67
2022/08/05 16:51:41;;;;;;;1.95;1.00;;;;;;;25.19;30.83;100657.41;5073831;28;20048;-67
2022/08/05 16:54:09;;;;;;;1.80;1.05;;;;;;;25.00;31.79;100664.38;5072321;28;20067;-66
2022/08/05 16:56:37;;;;;;;3.45;0.60;;;;;;;24.80;31.83;100668.84;5072957;28;20055;-66
2022/08/05 16:59:05;;;;;;;2.75;0.73;;;;;;;24.73;31.65;100674.56;5077414;28;20059;-67
2022/08/05 17:01:34;;;;;;;1.95;0.70;;;;;;;24.59;32.14;100676.19;5078905;28;20055;-66
2022/08/05 17:04:02;;;;;;;1.17;0.60;;;;;;;24.45;31.88;100681.84;5063803;28;20041;-66
2022/08/05 17:06:29;;;;;;;2.85;0.80;;;;;;;24.41;31.95;100681.03;5072591;28;20060;-66
2022/08/05 17:08:57;;;;;;;2.50;1.00;;;;;;;24.37;32.21;100685.91;5079737;28;20055;-67
2022/08/05 17:11:25;;;;;;;1.63;0.60;;;;;;;24.39;32.47;100680.63;5073645;28;20075;-66
2022/08/05 17:13:53;;;;;;;1.92;0.80;;;;;;;24.38;32.89;100687.50;5070787;28;20496;-67
2022/08/05 17:16:20;;;;;;;2.67;0.88;;;;;;;24.33;32.92;100688.72;5080134;28;20056;-67
2022/08/05 17:18:49;;;;;;;2.40;0.70;;;;;;;24.33;32.05;100690.78;5073262;28;20056;-66
2022/08/05 17:21:16;;;;;;;2.85;0.80;;;;;;;24.27;32.67;100688.34;5065700;28;20136;-66
2022/08/05 17:23:44;;;;;;;2.67;0.70;;;;;;;24.29;32.95;100690.75;5061540;28;20490;-66
2022/08/05 17:26:11;;;;;;;3.22;0.90;;;;;;;24.08;32.90;100706.56;5074230;28;20052;-66
2022/08/05 17:28:38;;;;;;;2.42;0.93;;;;;;;23.96;33.48;100703.25;5086618;28;20384;-67
2022/08/05 17:31:06;;;;;;;2.38;0.80;;;;;;;23.84;33.67;100713.78;5093036;28;20048;-67
2022/08/05 17:33:33;;;;;;;2.47;0.80;;;;;;;23.77;33.61;100710.94;5080190;28;20052;-67
2022/08/05 17:39:24;;;;;;;1.73;0.60;;;;;;;23.43;34.45;100708.25;5068411;28;20055;-67
2022/08/05 17:41:51;;;;;;;2.25;0.90;;;;;;;23.27;34.76;100721.97;5068834;28;20052;-66
2022/08/05 17:44:18;;;;;;;4.72;0.70;;;;;;;23.20;34.42;100724.75;5068163;28;20068;-66
2022/08/05 17:46:46;;;;;;;1.42;0.80;;;;;;;23.18;34.40;100716.66;5069896;28;20052;-66
2022/08/05 17:49:13;;;;;;;4.13;1.10;;;;;;;23.17;34.21;100722.72;5065031;28;20052;-67
2022/08/05 17:51:40;;;;;;;2.00;1.00;;;;;;;22.98;34.37;100721.72;5068997;28;20052;-67
2022/08/05 17:54:08;;;;;;;1.88;0.70;;;;;;;22.77;34.51;100733.72;5071286;28;20432;-67
2022/08/05 17:56:36;;;;;;;1.63;0.70;;;;;;;22.79;34.78;100736.19;5069915;28;20071;-66
2022/08/05 17:59:04;;;;;;;1.92;0.88;;;;;;;22.67;34.56;100735.25;5070860;28;20060;-67
2022/08/05 18:01:31;;;;;;;3.03;0.65;;;;;;;22.66;34.72;100744.97;5060433;28;20389;-67
2022/08/05 18:03:58;;;;;;;1.85;0.70;;;;;;;22.58;35.14;100748.16;5064992;28;20052;-68
2022/08/05 18:06:25;;;;;;;3.03;1.48;;;;;;;22.44;34.97;100748.81;5070043;28;20416;-67
2022/08/05 18:08:53;;;;;;;3.10;1.02;;;;;;;22.45;35.46;100753.28;5067878;28;20056;-66
2022/08/05 18:11:21;;;;;;;1.77;0.77;;;;;;;22.37;35.57;100760.09;5067480;28;20417;-67
2022/08/05 18:13:50;;;;;;;2.33;0.90;;;;;;;22.35;35.73;100768.16;5066604;28;20052;-67
2022/08/05 18:16:17;;;;;;;2.42;0.73;;;;;;;22.27;36.06;100767.25;5065760;28;20063;-67
2022/08/05 18:18:44;;;;;;;1.98;0.85;;;;;;;22.21;36.33;100768.78;5070466;28;20504;-67
2022/08/05 18:21:12;;;;;;;1.92;1.00;;;;;;;22.27;36.45;100779.44;5070608;28;20052;-66
2022/08/05 18:23:40;;;;;;;2.95;1.48;;;;;;;22.27;36.31;100773.75;5067077;28;20053;-67
2022/08/05 18:26:07;;;;;;;1.33;0.70;;;;;;;22.29;36.44;100776.22;5072097;28;20052;-67
2022/08/05 18:28:34;;;;;;;2.28;0.65;;;;;;;22.25;36.48;100781.03;5071036;28;20048;-68
2022/08/05 18:31:04;;;;;;;2.05;0.73;;;;;;;22.23;36.62;100789.91;5068873;28;20056;-67
2022/08/05 18:33:32;;;;;;;1.60;0.73;;;;;;;22.19;36.94;100788.22;5057109;28;20056;-69
2022/08/05 18:35:59;;;;;;;1.33;0.65;;;;;;;22.14;37.05;100791.41;5058612;28;20053;-67
2022/08/05 18:38:26;;;;;;;1.33;0.70;;;;;;;22.06;37.41;100804.66;5070555;28;20075;-68
2022/08/05 18:40:54;;;;;;;3.13;0.80;;;;;;;22.00;37.44;100809.03;5075913;28;20048;-68
2022/08/05 18:43:21;;;;;;;1.15;0.60;;;;;;;21.89;37.28;100806.06;5087054;28;20052;-68
2022/08/05 18:45:48;;;;;;;2.42;0.98;;;;;;;21.84;37.41;100812.88;5072036;28;20053;-68
2022/08/05 18:48:17;;;;;;;2.10;0.82;;;;;;;21.74;37.45;100813.53;5080583;28;20059;-68
2022/08/05 18:53:31;;;;;;;1.58;0.75;;;;;;;21.53;38.38;100819.72;5086715;28;20515;-66
2022/08/05 18:55:58;;;;;;;2.05;0.90;;;;;;;21.44;38.39;100816.31;5066364;28;20051;-68
2022/08/05 18:58:25;;;;;;;4.03;1.00;;;;;;;21.31;38.68;100818.50;5071501;28;20055;-68
2022/08/05 19:00:53;;;;;;;1.67;0.80;;;;;;;21.23;39.37;100839.41;5070349;28;20044;-68
2022/08/05 19:03:21;;;;;;;1.80;0.80;;;;;;;21.15;39.09;100838.50;5070188;28;20052;-68
2022/08/05 19:05:49;;;;;;;1.55;0.63;;;;;;;21.04;39.42;100832.63;5072484;28;20480;-68
2022/08/05 19:08:16;;;;;;;2.05;0.80;;;;;;;21.07;39.46;100833.88;5070632;28;20055;-67
2022/08/05 19:10:43;;;;;;;2.55;1.23;;;;;;;20.97;39.77;100837.34;5070915;28;20416;-68
2022/08/05 19:13:11;;;;;;;2.28;1.60;;;;;;;20.97;39.90;100837.34;5071344;28;20052;-69
2022/08/05 19:15:38;;;;;;;3.45;1.58;;;;;;;20.90;39.92;100838.03;5071555;28;20056;-68
2022/08/05 19:18:06;;;;;;;2.38;1.08;;;;;;;20.83;40.16;100844.38;5070568;28;20063;-68
2022/08/05 19:20:35;;;;;;;1.70;1.00;;;;;;;20.82;40.29;100850.41;5068953;28;20072;-66
2022/08/05 19:23:02;;;;;;;1.60;1.08;;;;;;;20.77;40.44;100847.91;5066433;28;20510;-66
2022/08/05 19:25:29;;;;;;;3.83;1.05;;;;;;;20.71;40.88;100855.06;5070733;28;20480;-68
2022/08/05 19:27:56;;;;;;;1.85;1.17;;;;;;;20.67;40.72;100857.81;5068440;28;20075;-68
2022/08/05 19:30:24;;;;;;;2.38;1.27;;;;;;;20.60;40.71;100854.84;5067808;28;20059;-68
2022/08/05 19:32:51;;;;;;;2.03;0.90;;;;;;;20.54;40.78;100862.78;5069265;28;20048;-68
2022/08/05 19:35:19;;;;;;;2.60;1.00;;;;;;;20.46;40.82;100869.50;5067870;28;20436;-68
2022/08/05 19:37:47;;;;;;;2.10;1.08;;;;;;;20.43;40.84;100875.88;5068006;28;20527;-65
2022/08/05 19:40:15;;;;;;;2.88;1.33;;;;;;;20.36;41.13;100887.88;5063053;28;20075;-68
2022/08/05 19:42:42;;;;;;;3.67;1.10;;;;;;;20.33;41.12;100882.16;5061737;28;20044;-68
2022/08/05 19:45:10;;;;;;;2.47;1.08;;;;;;;20.27;41.20;100885.25;5061408;28;20044;-69
2022/08/05 19:47:39;;;;;;;2.47;1.08;;;;;;;20.26;41.04;100892.13;5061337;28;20527;-68
2022/08/05 19:50:07;;;;;;;1.70;0.90;;;;;;;20.20;41.38;100904.06;5062348;28;20052;-68
2022/08/05 19:52:34;;;;;;;1.85;0.80;;;;;;;20.15;41.28;100908.03;5075190;28;20074;-68
2022/08/05 19:55:03;;;;;;;1.85;0.98;;;;;;;20.12;41.71;100907.97;5065627;28;20541;-68
2022/08/05 19:57:30;;;;;;;1.88;0.95;;;;;;;20.04;41.64;100909.78;5063992;28;20052;-68
2022/08/05 19:59:57;;;;;;;2.10;1.10;;;;;;;19.98;41.78;100916.91;5069877;28;20056;-69
2022/08/05 20:02:25;;;;;;;3.25;0.70;;;;;;;19.92;41.75;100919.19;5066757;28;20041;-69
2022/08/05 20:04:53;;;;;;;2.65;0.80;;;;;;;19.89;42.35;100927.63;5057207;28;20497;-69
2022/08/05 20:07:20;;;;;;;2.07;0.70;;;;;;;19.81;42.64;100938.72;5061594;28;20052;-69
2022/08/05 20:09:48;;;;;;;3.22;1.55;;;;;;;19.74;43.03;100934.91;5062043;28;20068;-69
2022/08/05 20:12:17;;;;;;;3.67;1.50;;;;;;;19.67;43.23;100936.34;5070049;28;20052;-68
2022/08/05 20:14:48;;;;;;;3.88;1.50;;;;;;;19.63;43.72;100937.44;5071991;28;20507;-69
2022/08/05 20:17:15;;;;;;;4.18;1.50;;;;;;;19.56;43.86;100945.75;5064505;28;20060;-69
2022/08/05 20:19:42;;;;;;;3.05;1.35;;;;;;;19.47;44.67;100943.09;5057211;28;20053;-68
2022/08/05 20:22:10;;;;;;;2.20;1.17;;;;;;;19.37;45.25;100947.28;5068608;28;20064;-68
2022/08/05 20:24:37;;;;;;;2.80;1.17;;;;;;;19.30;45.96;100957.53;5063904;28;20064;-69
2022/08/05 20:27:05;;;;;;;2.03;0.95;;;;;;;19.21;46.58;100963.38;5064571;28;20048;-66
2022/08/05 20:29:40;;;;;;;2.65;0.98;;;;;;;19.14;47.01;100974.47;5062415;28;20044;-69
2022/08/05 20:32:07;;;;;;;2.28;1.33;;;;;;;19.06;47.67;100979.91;5067522;28;20061;-69
2022/08/05 20:34:35;;;;;;;1.48;0.77;;;;;;;18.98;48.20;100978.09;5067795;28;20065;-68
2022/08/05 20:37:02;;;;;;;2.90;1.27;;;;;;;18.90;49.38;100970.59;5058758;28;20048;-69
2022/08/05 20:39:30;;;;;;;2.00;0.98;;;;;;;18.82;49.73;100980.84;5061815;28;20417;-69
2022/08/05 20:41:57;;;;;;;3.38;0.90;;;;;;;18.70;51.23;100982.84;5053736;28;20507;-68
2022/08/05 20:44:24;;;;;;;3.30;1.13;;;;;;;18.58;51.36;100997.81;5054497;28;20441;-69
2022/08/05 20:46:53;;;;;;;2.45;0.93;;;;;;;18.49;51.71;100995.13;5054688;28;20060;-69
2022/08/05 20:49:20;;;;;;;1.93;0.90;;;;;;;18.36;52.36;100993.50;5072904;28;20048;-69
2022/08/05 20:51:47;;;;;;;3.85;1.13;;;;;;;18.28;51.93;100994.47;5074494;28;20463;-69
2022/08/05 20:54:15;;;;;;;2.35;1.10;;;;;;;18.16;52.53;101003.75;5074515;28;20052;-69
2022/08/05 20:56:42;;;;;;;2.85;1.02;;;;;;;18.07;52.77;101012.31;5073959;28;20049;-70
2022/08/05 20:59:09;;;;;;;2.33;1.05;;;;;;;17.91;53.66;101009.41;5073855;28;20056;-68
2022/08/05 21:01:37;;;;;;;2.05;1.00;;;;;;;17.79;54.11;101007.34;5073992;28;20178;-69
2022/08/05 21:04:08;;;;;;;2.42;1.25;;;;;;;17.70;54.51;101001.00;5074435;28;20059;-69
2022/08/05 21:06:36;;;;;;;2.40;1.02;;;;;;;17.61;54.85;101012.34;5073994;28;20484;-69
2022/08/05 21:09:04;;;;;;;1.73;1.00;;;;;;;17.53;55.12;101012.47;5073997;28;20057;-69
2022/08/05 21:11:32;;;;;;;2.03;1.00;;;;;;;17.46;55.25;101021.47;5071831;28;20044;-69
2022/08/05 21:13:59;;;;;;;3.22;1.15;;;;;;;17.37;55.81;101015.94;5071972;28;20048;-69
2022/08/05 21:16:28;;;;;;;3.22;1.35;;;;;;;17.28;55.88;101015.19;5071329;28;20059;-69
2022/08/05 21:18:55;;;;;;;1.67;1.10;;;;;;;17.22;56.18;101006.16;5069564;28;20067;-69
2022/08/05 21:21:24;;;;;;;1.80;1.20;;;;;;;17.11;56.24;101010.56;5071497;28;20056;-68
2022/08/05 21:23:51;;;;;;;2.10;1.33;;;;;;;17.03;56.50;101012.31;5073903;28;20055;-70
2022/08/05 21:26:19;;;;;;;3.05;1.10;;;;;;;16.95;56.67;101016.03;5068679;28;20052;-70
2022/08/05 21:28:46;;;;;;;4.10;1.20;;;;;;;16.88;57.06;101017.72;5069973;28;20059;-69
2022/08/05 21:31:13;;;;;;;2.10;1.02;;;;;;;16.80;56.89;101022.25;5069144;28;20067;-69
2022/08/05 21:33:41;;;;;;;2.95;1.08;;;;;;;16.76;57.17;101024.09;5070113;28;20465;-66
2022/08/05 21:36:08;;;;;;;3.60;1.20;;;;;;;16.70;57.36;101022.66;5072747;28;20123;-69
2022/08/05 21:38:37;;;;;;;3.42;1.30;;;;;;;16.64;57.54;101036.09;5062681;28;20055;-68
2022/08/05 21:41:05;;;;;;;1.90;1.30;;;;;;;16.53;57.67;101037.66;5073377;28;20059;-68
2022/08/05 21:43:32;;;;;;;2.95;1.15;;;;;;;16.47;57.99;101037.03;5071715;28;20075;-66
2022/08/05 21:46:00;;;;;;;2.45;1.45;;;;;;;16.48;57.86;101044.28;5055899;28;20052;-67
2022/08/05 21:48:28;;;;;;;2.17;1.50;;;;;;;16.46;58.03;101049.44;5070508;28;20056;-69
2022/08/05 21:50:55;;;;;;;2.90;1.42;;;;;;;16.42;57.96;101048.47;5072296;28;20048;-68
2022/08/05 21:53:23;;;;;;;2.40;1.20;;;;;;;16.42;58.43;101048.47;5073267;28;20385;-68
2022/08/05 21:55:52;;;;;;;1.85;1.30;;;;;;;16.42;58.85;101040.03;5071724;28;20056;-68
2022/08/05 21:58:19;;;;;;;1.80;1.20;;;;;;;16.42;58.76;101040.88;5072741;28;20507;-68
2022/08/05 22:00:46;;;;;;;5.78;1.70;;;;;;;16.42;58.95;101048.47;5072113;28;20052;-68
2022/08/05 22:03:14;;;;;;;2.40;1.60;;;;;;;16.38;59.37;101053.97;5068048;28;20456;-68
2022/08/05 22:05:41;;;;;;;2.20;1.10;;;;;;;16.37;59.51;101060.75;5070739;28;20052;-68
2022/08/05 22:08:09;;;;;;;5.32;1.20;;;;;;;16.41;59.32;101064.53;5072375;28;20417;-68
2022/08/05 22:10:36;;;;;;;2.00;1.30;;;;;;;16.42;59.64;101060.56;5071384;28;20504;-68
2022/08/05 22:13:05;;;;;;;3.30;1.27;;;;;;;16.44;59.43;101060.19;5072624;28;20059;-68
2022/08/05 22:15:32;;;;;;;2.20;1.40;;;;;;;16.40;59.44;101059.25;5062309;28;20075;-68
2022/08/05 22:18:00;;;;;;;3.65;1.33;;;;;;;16.37;59.89;101062.72;5052081;28;20056;-67
2022/08/05 22:20:27;;;;;;;3.03;1.65;;;;;;;16.44;59.74;101072.28;5052769;28;20057;-68
2022/08/05 22:28:25;;;;;;;4.93;1.63;;;;;;;16.47;60.68;101067.97;5078289;28;20399;-70
2022/08/05 22:30:52;;;;;;;4.80;1.90;;;;;;;16.49;60.52;101070.44;5068697;28;20044;-68
2022/08/05 22:33:19;;;;;;;4.18;1.30;;;;;;;16.51;60.76;101071.75;5062903;28;20063;-70
2022/08/05 22:35:47;;;;;;;1.58;1.15;;;;;;;16.54;60.31;101076.69;5070560;28;20059;-68
2022/08/05 22:38:14;;;;;;;2.38;1.27;;;;;;;16.52;60.52;101079.00;5072428;28;20060;-68
2022/08/05 22:40:41;;;;;;;2.40;1.20;;;;;;;16.54;60.59;101078.69;5066613;28;20053;-68
2022/08/05 22:43:09;;;;;;;2.95;1.30;;;;;;;16.56;60.68;101074.34;5072502;28;20045;-68
2022/08/05 22:45:37;;;;;;;2.35;1.23;;;;;;;16.60;60.25;101080.13;5069333;28;20052;-68
2022/08/05 22:48:05;;;;;;;2.90;1.50;;;;;;;16.59;60.96;101078.50;5072242;28;20052;-67
2022/08/05 22:50:33;;;;;;;2.30;1.35;;;;;;;16.62;61.02;101084.25;5068607;28;20049;-70
2022/08/05 22:53:00;;;;;;;2.78;1.20;;;;;;;16.64;60.53;101084.72;5052904;28;20048;-70
2022/08/05 22:55:27;;;;;;;2.28;1.20;;;;;;;16.68;60.36;101093.31;5052330;28;20076;-70
2022/08/05 22:57:55;;;;;;;2.20;1.63;;;;;;;16.66;60.08;101089.19;5058678;28;20048;-69
2022/08/05 23:00:23;;;;;;;3.03;1.35;;;;;;;16.67;60.48;101093.66;5072007;28;20064;-69
2022/08/05 23:02:52;;;;;;;2.30;1.48;;;;;;;16.68;60.99;101098.13;5070521;28;20041;-69
2022/08/05 23:05:21;;;;;;;2.67;1.50;;;;;;;16.68;60.81;101098.13;5072054;28;20060;-70
2022/08/05 23:07:48;;;;;;;2.07;1.47;;;;;;;16.68;60.65;101092.50;5070913;28;20056;-70
2022/08/05 23:10:16;;;;;;;2.40;1.63;;;;;;;16.67;60.50;101099.28;5065373;28;20499;-69
2022/08/05 23:12:43;;;;;;;4.18;1.73;;;;;;;16.70;60.85;101101.41;5065741;28;20052;-69
2022/08/05 23:15:11;;;;;;;4.53;1.67;;;;;;;16.70;60.86;101107.88;5072357;28;20060;-69
2022/08/05 23:17:38;;;;;;;4.10;1.88;;;;;;;16.70;60.71;101104.25;5062120;28;20068;-69
2022/08/05 23:20:09;;;;;;;3.58;1.52;;;;;;;16.70;60.48;101107.88;5072132;28;20053;-69
2022/08/05 23:22:36;;;;;;;2.97;1.60;;;;;;;16.63;60.90;101114.03;5075517;28;20059;-70
2022/08/05 23:25:04;;;;;;;3.22;1.85;;;;;;;16.60;60.63;101125.94;5075228;28;20048;-70
2022/08/05 23:27:32;;;;;;;4.70;1.60;;;;;;;16.54;60.46;101118.88;5076176;28;20065;-69
2022/08/05 23:29:59;;;;;;;2.42;1.58;;;;;;;16.38;60.69;101132.69;5068249;28;20044;-69
2022/08/05 23:32:26;;;;;;;2.40;1.50;;;;;;;16.37;60.60;101127.41;5068720;28;20432;-69
2022/08/05 23:34:54;;;;;;;3.38;1.48;;;;;;;16.37;60.85;101144.28;5072112;28;20056;-69
2022/08/05 23:37:23;;;;;;;2.67;1.30;;;;;;;16.30;61.42;101150.41;5076184;28;20508;-70
2022/08/05 23:39:50;;;;;;;2.23;1.20;;;;;;;16.35;61.05;101140.97;5074189;28;20044;-70
2022/08/05 23:42:18;;;;;;;5.88;1.50;;;;;;;16.37;60.89;101145.09;5075864;28;20467;-70
2022/08/05 23:44:45;;;;;;;3.45;1.40;;;;;;;16.37;61.40;101149.88;5065597;28;20057;-69
2022/08/05 23:47:12;;;;;;;2.80;1.70;;;;;;;16.38;61.40;101149.56;5069052;28;20059;-69
2022/08/05 23:49:39;;;;;;;3.13;1.48;;;;;;;16.37;61.22;101155.50;5074312;28;20048;-70
2022/08/05 23:54:54;;;;;;;4.82;1.88;;;;;;;16.37;61.97;101161.13;5065428;28;20055;-70
2022/08/05 23:57:21;;;;;;;;;;;;;;;16.37;61.82;101156.34;5075332;28;20420;-69
2022/08/05 23:59:48;;;;;;;2.38;1.20;;;;;;;16.41;61.54;101167.75;5074361;28;20411;-69
